sensor_id;sensor_type;location;lat;lon;timestamp;P1;durP1;ratioP1;P2;durP2;ratioP2
66421;SDS011;53228;51.380;0.098;2022-09-12T00:01:10;21.52;;;11.60;;
66421;SDS011;53228;51.380;0.098;2022-09-12T00:03:40;22.83;;;12.65;;
66421;SDS011;53228;51.380;0.098;2022-09-12T00:06:10;24.73;;;13.43;;
66421;SDS011;53228;51.380;0.098;2022-09-12T00:08:43;25.48;;;13.85;;
66421;SDS011;53228;51.380;0.098;2022-09-12T00:11:11;24.00;;;13.18;;
66421;SDS011;53228;51.380;0.098;2022-09-12T00:13:39;25.23;;;14.88;;
66421;SDS011;53228;51.380;0.098;2022-09-12T00:16:18;25.65;;;14.07;;
66421;SDS011;53228;51.380;0.098;2022-09-12T00:18:48;27.63;;;15.63;;
66421;SDS011;53228;51.380;0.098;2022-09-12T00:21:16;26.55;;;14.95;;
66421;SDS011;53228;51.380;0.098;2022-09-12T00:23:45;30.35;;;15.35;;
66421;SDS011;53228;51.380;0.098;2022-09-12T00:26:14;32.05;;;16.08;;
66421;SDS011;53228;51.380;0.098;2022-09-12T00:28:43;27.88;;;15.70;;
66421;SDS011;53228;51.380;0.098;2022-09-12T00:31:12;30.25;;;16.90;;
66421;SDS011;53228;51.380;0.098;2022-09-12T00:33:42;33.88;;;17.50;;
66421;SDS011;53228;51.380;0.098;2022-09-12T00:36:14;34.13;;;17.27;;
66421;SDS011;53228;51.380;0.098;2022-09-12T00:38:45;29.05;;;16.40;;
66421;SDS011;53228;51.380;0.098;2022-09-12T00:41:17;30.83;;;16.83;;
66421;SDS011;53228;51.380;0.098;2022-09-12T00:43:48;30.90;;;18.35;;
66421;SDS011;53228;51.380;0.098;2022-09-12T00:46:24;29.20;;;16.48;;
66421;SDS011;53228;51.380;0.098;2022-09-12T00:49:17;31.05;;;17.20;;
66421;SDS011;53228;51.380;0.098;2022-09-12T00:54:49;32.67;;;18.00;;
66421;SDS011;53228;51.380;0.098;2022-09-12T00:57:42;31.23;;;17.20;;
66421;SDS011;53228;51.380;0.098;2022-09-12T01:00:17;31.73;;;17.02;;
66421;SDS011;53228;51.380;0.098;2022-09-12T01:02:51;30.00;;;17.17;;
66421;SDS011;53228;51.380;0.098;2022-09-12T01:05:25;36.13;;;18.55;;
66421;SDS011;53228;51.380;0.098;2022-09-12T01:07:56;33.88;;;17.40;;
66421;SDS011;53228;51.380;0.098;2022-09-12T01:10:26;29.45;;;15.82;;
66421;SDS011;53228;51.380;0.098;2022-09-12T01:12:55;30.52;;;16.73;;
66421;SDS011;53228;51.380;0.098;2022-09-12T01:15:24;32.53;;;18.20;;
66421;SDS011;53228;51.380;0.098;2022-09-12T01:35:05;24.98;;;15.48;;
66421;SDS011;53228;51.380;0.098;2022-09-12T01:41:01;27.80;;;14.90;;
66421;SDS011;53228;51.380;0.098;2022-09-12T01:46:19;26.80;;;13.50;;
66421;SDS011;53228;51.380;0.098;2022-09-12T01:49:00;25.35;;;13.52;;
66421;SDS011;53228;51.380;0.098;2022-09-12T01:51:38;23.80;;;13.05;;
66421;SDS011;53228;51.380;0.098;2022-09-12T01:54:18;20.67;;;12.50;;
66421;SDS011;53228;51.380;0.098;2022-09-12T01:57:09;19.35;;;12.73;;
66421;SDS011;53228;51.380;0.098;2022-09-12T01:59:46;18.85;;;12.00;;
66421;SDS011;53228;51.380;0.098;2022-09-12T02:02:21;16.95;;;11.18;;
66421;SDS011;53228;51.380;0.098;2022-09-12T02:04:55;24.52;;;13.45;;
66421;SDS011;53228;51.380;0.098;2022-09-12T02:07:30;20.02;;;11.80;;
66421;SDS011;53228;51.380;0.098;2022-09-12T02:10:09;23.20;;;11.93;;
66421;SDS011;53228;51.380;0.098;2022-09-12T02:12:54;16.50;;;11.05;;
66421;SDS011;53228;51.380;0.098;2022-09-12T02:15:48;19.92;;;10.88;;
66421;SDS011;53228;51.380;0.098;2022-09-12T02:18:22;19.02;;;11.20;;
66421;SDS011;53228;51.380;0.098;2022-09-12T02:20:53;16.58;;;10.18;;
66421;SDS011;53228;51.380;0.098;2022-09-12T02:23:24;16.30;;;10.65;;
66421;SDS011;53228;51.380;0.098;2022-09-12T02:25:55;16.88;;;10.63;;
66421;SDS011;53228;51.380;0.098;2022-09-12T02:28:31;20.90;;;10.75;;
66421;SDS011;53228;51.380;0.098;2022-09-12T02:39:04;15.98;;;9.80;;
66421;SDS011;53228;51.380;0.098;2022-09-12T02:41:31;15.57;;;10.02;;
66421;SDS011;53228;51.380;0.098;2022-09-12T02:43:59;17.63;;;10.23;;
66421;SDS011;53228;51.380;0.098;2022-09-12T02:46:31;18.65;;;10.23;;
66421;SDS011;53228;51.380;0.098;2022-09-12T02:49:04;14.40;;;10.18;;
66421;SDS011;53228;51.380;0.098;2022-09-12T02:51:35;15.85;;;10.18;;
66421;SDS011;53228;51.380;0.098;2022-09-12T02:54:04;16.80;;;9.82;;
66421;SDS011;53228;51.380;0.098;2022-09-12T02:56:33;14.30;;;9.45;;
66421;SDS011;53228;51.380;0.098;2022-09-12T02:59:03;13.93;;;9.95;;
66421;SDS011;53228;51.380;0.098;2022-09-12T03:07:15;14.20;;;8.52;;
66421;SDS011;53228;51.380;0.098;2022-09-12T03:09:48;12.40;;;8.80;;
66421;SDS011;53228;51.380;0.098;2022-09-12T03:16:18;13.57;;;7.13;;
66421;SDS011;53228;51.380;0.098;2022-09-12T03:18:18;16.17;;;8.13;;
66421;SDS011;53228;51.380;0.098;2022-09-12T03:21:01;13.07;;;7.72;;
66421;SDS011;53228;51.380;0.098;2022-09-12T03:23:51;9.35;;;6.90;;
66421;SDS011;53228;51.380;0.098;2022-09-12T03:29:27;10.45;;;6.82;;
66421;SDS011;53228;51.380;0.098;2022-09-12T03:31:57;9.52;;;6.60;;
66421;SDS011;53228;51.380;0.098;2022-09-12T03:34:25;9.32;;;6.78;;
66421;SDS011;53228;51.380;0.098;2022-09-12T03:36:54;10.23;;;6.60;;
66421;SDS011;53228;51.380;0.098;2022-09-12T03:39:22;8.73;;;6.88;;
66421;SDS011;53228;51.380;0.098;2022-09-12T03:41:53;9.32;;;7.20;;
66421;SDS011;53228;51.380;0.098;2022-09-12T03:44:21;13.80;;;7.68;;
66421;SDS011;53228;51.380;0.098;2022-09-12T03:46:50;11.93;;;7.90;;
66421;SDS011;53228;51.380;0.098;2022-09-12T03:49:18;12.05;;;7.97;;
66421;SDS011;53228;51.380;0.098;2022-09-12T03:51:46;14.95;;;8.27;;
66421;SDS011;53228;51.380;0.098;2022-09-12T03:54:14;9.57;;;7.55;;
66421;SDS011;53228;51.380;0.098;2022-09-12T03:56:42;10.73;;;7.80;;
66421;SDS011;53228;51.380;0.098;2022-09-12T03:59:09;15.25;;;8.25;;
66421;SDS011;53228;51.380;0.098;2022-09-12T04:01:37;16.90;;;8.57;;
66421;SDS011;53228;51.380;0.098;2022-09-12T04:04:05;14.57;;;8.23;;
66421;SDS011;53228;51.380;0.098;2022-09-12T04:06:32;15.52;;;7.78;;
66421;SDS011;53228;51.380;0.098;2022-09-12T04:09:00;13.35;;;8.57;;
66421;SDS011;53228;51.380;0.098;2022-09-12T04:11:28;11.80;;;7.90;;
66421;SDS011;53228;51.380;0.098;2022-09-12T04:13:55;12.60;;;8.10;;
66421;SDS011;53228;51.380;0.098;2022-09-12T04:16:23;12.90;;;8.27;;
66421;SDS011;53228;51.380;0.098;2022-09-12T04:18:50;11.65;;;8.40;;
66421;SDS011;53228;51.380;0.098;2022-09-12T04:21:19;10.68;;;7.72;;
66421;SDS011;53228;51.380;0.098;2022-09-12T04:23:48;11.20;;;7.57;;
66421;SDS011;53228;51.380;0.098;2022-09-12T04:26:17;10.95;;;7.85;;
66421;SDS011;53228;51.380;0.098;2022-09-12T04:28:45;15.65;;;8.70;;
66421;SDS011;53228;51.380;0.098;2022-09-12T04:31:15;10.90;;;8.18;;
66421;SDS011;53228;51.380;0.098;2022-09-12T04:33:46;13.45;;;8.60;;
66421;SDS011;53228;51.380;0.098;2022-09-12T04:36:14;10.93;;;8.40;;
66421;SDS011;53228;51.380;0.098;2022-09-12T04:38:44;11.38;;;7.70;;
66421;SDS011;53228;51.380;0.098;2022-09-12T04:41:13;14.02;;;7.80;;
66421;SDS011;53228;51.380;0.098;2022-09-12T04:43:43;12.63;;;7.65;;
66421;SDS011;53228;51.380;0.098;2022-09-12T04:46:16;15.30;;;8.75;;
66421;SDS011;53228;51.380;0.098;2022-09-12T04:48:46;13.18;;;7.57;;
66421;SDS011;53228;51.380;0.098;2022-09-12T04:51:21;11.73;;;7.80;;
66421;SDS011;53228;51.380;0.098;2022-09-12T04:53:55;12.30;;;7.68;;
66421;SDS011;53228;51.380;0.098;2022-09-12T04:56:28;15.57;;;8.07;;
66421;SDS011;53228;51.380;0.098;2022-09-12T04:58:57;12.07;;;8.20;;
66421;SDS011;53228;51.380;0.098;2022-09-12T05:01:27;14.88;;;8.25;;
66421;SDS011;53228;51.380;0.098;2022-09-12T05:03:56;12.25;;;7.78;;
66421;SDS011;53228;51.380;0.098;2022-09-12T05:06:27;10.75;;;7.03;;
66421;SDS011;53228;51.380;0.098;2022-09-12T05:08:56;12.55;;;7.78;;
66421;SDS011;53228;51.380;0.098;2022-09-12T05:11:26;11.43;;;7.78;;
66421;SDS011;53228;51.380;0.098;2022-09-12T05:14:16;12.45;;;7.35;;
66421;SDS011;53228;51.380;0.098;2022-09-12T05:16:43;12.65;;;7.70;;
66421;SDS011;53228;51.380;0.098;2022-09-12T05:19:15;15.75;;;7.75;;
66421;SDS011;53228;51.380;0.098;2022-09-12T05:21:43;12.02;;;7.90;;
66421;SDS011;53228;51.380;0.098;2022-09-12T05:24:11;14.18;;;7.95;;
66421;SDS011;53228;51.380;0.098;2022-09-12T05:26:38;13.77;;;7.78;;
66421;SDS011;53228;51.380;0.098;2022-09-12T05:29:06;9.18;;;7.18;;
66421;SDS011;53228;51.380;0.098;2022-09-12T05:31:33;14.98;;;8.57;;
66421;SDS011;53228;51.380;0.098;2022-09-12T05:34:01;12.80;;;7.78;;
66421;SDS011;53228;51.380;0.098;2022-09-12T05:36:34;13.05;;;7.95;;
66421;SDS011;53228;51.380;0.098;2022-09-12T05:39:06;11.18;;;6.78;;
66421;SDS011;53228;51.380;0.098;2022-09-12T05:41:33;8.30;;;6.47;;
66421;SDS011;53228;51.380;0.098;2022-09-12T05:44:03;9.25;;;6.45;;
66421;SDS011;53228;51.380;0.098;2022-09-12T05:46:35;13.85;;;6.25;;
66421;SDS011;53228;51.380;0.098;2022-09-12T05:49:04;6.90;;;4.85;;
66421;SDS011;53228;51.380;0.098;2022-09-12T05:51:35;9.50;;;6.10;;
66421;SDS011;53228;51.380;0.098;2022-09-12T05:54:10;7.72;;;6.07;;
66421;SDS011;53228;51.380;0.098;2022-09-12T05:56:41;9.45;;;5.72;;
66421;SDS011;53228;51.380;0.098;2022-09-12T05:59:11;9.45;;;5.68;;
66421;SDS011;53228;51.380;0.098;2022-09-12T06:01:40;7.80;;;5.13;;
66421;SDS011;53228;51.380;0.098;2022-09-12T06:04:09;9.00;;;5.05;;
66421;SDS011;53228;51.380;0.098;2022-09-12T06:06:39;5.30;;;4.75;;
66421;SDS011;53228;51.380;0.098;2022-09-12T06:09:08;8.13;;;5.15;;
66421;SDS011;53228;51.380;0.098;2022-09-12T06:11:37;8.50;;;4.80;;
66421;SDS011;53228;51.380;0.098;2022-09-12T06:14:07;9.80;;;4.75;;
66421;SDS011;53228;51.380;0.098;2022-09-12T06:16:39;7.38;;;4.53;;
66421;SDS011;53228;51.380;0.098;2022-09-12T06:19:11;8.63;;;4.63;;
66421;SDS011;53228;51.380;0.098;2022-09-12T06:21:41;5.18;;;4.03;;
66421;SDS011;53228;51.380;0.098;2022-09-12T06:24:08;7.20;;;3.90;;
66421;SDS011;53228;51.380;0.098;2022-09-12T06:26:36;4.50;;;3.47;;
66421;SDS011;53228;51.380;0.098;2022-09-12T06:29:04;6.75;;;3.40;;
66421;SDS011;53228;51.380;0.098;2022-09-12T06:31:34;4.25;;;3.40;;
66421;SDS011;53228;51.380;0.098;2022-09-12T06:34:07;6.45;;;3.22;;
66421;SDS011;53228;51.380;0.098;2022-09-12T06:36:38;6.00;;;3.47;;
66421;SDS011;53228;51.380;0.098;2022-09-12T06:39:17;4.95;;;3.00;;
66421;SDS011;53228;51.380;0.098;2022-09-12T06:41:47;5.80;;;3.13;;
66421;SDS011;53228;51.380;0.098;2022-09-12T06:44:17;4.00;;;3.05;;
66421;SDS011;53228;51.380;0.098;2022-09-12T06:46:47;4.85;;;3.10;;
66421;SDS011;53228;51.380;0.098;2022-09-12T06:49:15;7.38;;;2.60;;
66421;SDS011;53228;51.380;0.098;2022-09-12T06:51:43;3.00;;;2.63;;
66421;SDS011;53228;51.380;0.098;2022-09-12T06:54:12;5.05;;;2.92;;
66421;SDS011;53228;51.380;0.098;2022-09-12T06:56:41;5.05;;;2.70;;
66421;SDS011;53228;51.380;0.098;2022-09-12T06:59:08;4.65;;;2.47;;
66421;SDS011;53228;51.380;0.098;2022-09-12T07:01:36;2.58;;;2.17;;
66421;SDS011;53228;51.380;0.098;2022-09-12T07:04:04;3.78;;;2.10;;
66421;SDS011;53228;51.380;0.098;2022-09-12T07:06:35;6.65;;;2.40;;
66421;SDS011;53228;51.380;0.098;2022-09-12T07:09:05;5.05;;;2.75;;
66421;SDS011;53228;51.380;0.098;2022-09-12T07:11:36;3.95;;;2.20;;
66421;SDS011;53228;51.380;0.098;2022-09-12T07:14:05;3.70;;;2.50;;
66421;SDS011;53228;51.380;0.098;2022-09-12T07:16:34;9.30;;;2.75;;
66421;SDS011;53228;51.380;0.098;2022-09-12T07:19:03;4.65;;;2.50;;
66421;SDS011;53228;51.380;0.098;2022-09-12T07:21:32;3.03;;;2.20;;
66421;SDS011;53228;51.380;0.098;2022-09-12T07:24:05;2.80;;;2.13;;
66421;SDS011;53228;51.380;0.098;2022-09-12T07:26:34;3.00;;;2.28;;
66421;SDS011;53228;51.380;0.098;2022-09-12T07:29:02;3.50;;;2.30;;
66421;SDS011;53228;51.380;0.098;2022-09-12T07:31:51;4.55;;;2.33;;
66421;SDS011;53228;51.380;0.098;2022-09-12T07:34:18;3.53;;;2.15;;
66421;SDS011;53228;51.380;0.098;2022-09-12T07:36:46;4.35;;;2.47;;
66421;SDS011;53228;51.380;0.098;2022-09-12T07:39:13;4.72;;;2.33;;
66421;SDS011;53228;51.380;0.098;2022-09-12T07:41:41;3.97;;;2.58;;
66421;SDS011;53228;51.380;0.098;2022-09-12T07:44:08;4.45;;;2.00;;
66421;SDS011;53228;51.380;0.098;2022-09-12T07:46:36;4.18;;;2.45;;
66421;SDS011;53228;51.380;0.098;2022-09-12T07:49:06;3.00;;;2.00;;
66421;SDS011;53228;51.380;0.098;2022-09-12T07:51:34;7.57;;;2.38;;
66421;SDS011;53228;51.380;0.098;2022-09-12T07:54:05;3.28;;;2.03;;
66421;SDS011;53228;51.380;0.098;2022-09-12T07:56:35;5.00;;;2.08;;
66421;SDS011;53228;51.380;0.098;2022-09-12T07:59:05;3.22;;;1.83;;
66421;SDS011;53228;51.380;0.098;2022-09-12T08:01:35;5.85;;;1.80;;
66421;SDS011;53228;51.380;0.098;2022-09-12T08:04:03;4.22;;;2.15;;
66421;SDS011;53228;51.380;0.098;2022-09-12T08:06:32;5.68;;;2.10;;
66421;SDS011;53228;51.380;0.098;2022-09-12T08:09:02;3.00;;;1.83;;
66421;SDS011;53228;51.380;0.098;2022-09-12T08:11:31;4.68;;;2.20;;
66421;SDS011;53228;51.380;0.098;2022-09-12T08:13:59;7.35;;;2.28;;
66421;SDS011;53228;51.380;0.098;2022-09-12T08:16:29;5.38;;;2.13;;
66421;SDS011;53228;51.380;0.098;2022-09-12T08:19:01;5.68;;;1.90;;
66421;SDS011;53228;51.380;0.098;2022-09-12T08:21:30;15.25;;;2.97;;
66421;SDS011;53228;51.380;0.098;2022-09-12T08:24:03;5.63;;;2.22;;
66421;SDS011;53228;51.380;0.098;2022-09-12T08:26:32;3.35;;;2.08;;
66421;SDS011;53228;51.380;0.098;2022-09-12T08:29:01;3.97;;;1.80;;
66421;SDS011;53228;51.380;0.098;2022-09-12T08:31:30;4.40;;;1.83;;
66421;SDS011;53228;51.380;0.098;2022-09-12T08:34:03;4.07;;;1.92;;
66421;SDS011;53228;51.380;0.098;2022-09-12T08:36:31;3.42;;;1.75;;
66421;SDS011;53228;51.380;0.098;2022-09-12T08:39:01;12.13;;;2.15;;
66421;SDS011;53228;51.380;0.098;2022-09-12T08:41:36;3.42;;;1.95;;
66421;SDS011;53228;51.380;0.098;2022-09-12T08:57:57;2.20;;;1.30;;
66421;SDS011;53228;51.380;0.098;2022-09-12T09:00:34;6.32;;;1.77;;
66421;SDS011;53228;51.380;0.098;2022-09-12T09:17:39;3.90;;;1.90;;
66421;SDS011;53228;51.380;0.098;2022-09-12T09:20:18;2.72;;;1.88;;
66421;SDS011;53228;51.380;0.098;2022-09-12T09:31:14;9.55;;;1.83;;
66421;SDS011;53228;51.380;0.098;2022-09-12T09:33:48;5.95;;;1.83;;
66421;SDS011;53228;51.380;0.098;2022-09-12T09:39:26;5.25;;;1.60;;
66421;SDS011;53228;51.380;0.098;2022-09-12T09:44:41;1.20;;;1.10;;
66421;SDS011;53228;51.380;0.098;2022-09-12T09:47:12;2.72;;;1.80;;
66421;SDS011;53228;51.380;0.098;2022-09-12T09:49:40;1.55;;;1.38;;
66421;SDS011;53228;51.380;0.098;2022-09-12T09:52:09;7.82;;;1.90;;
66421;SDS011;53228;51.380;0.098;2022-09-12T09:54:46;2.78;;;1.35;;
66421;SDS011;53228;51.380;0.098;2022-09-12T10:05:51;8.75;;;2.60;;
66421;SDS011;53228;51.380;0.098;2022-09-12T10:08:21;5.72;;;3.13;;
66421;SDS011;53228;51.380;0.098;2022-09-12T10:10:53;5.65;;;2.55;;
66421;SDS011;53228;51.380;0.098;2022-09-12T10:13:40;5.95;;;3.13;;
66421;SDS011;53228;51.380;0.098;2022-09-12T10:18:51;7.63;;;2.97;;
66421;SDS011;53228;51.380;0.098;2022-09-12T10:21:40;4.28;;;2.90;;
66421;SDS011;53228;51.380;0.098;2022-09-12T10:27:19;4.50;;;2.75;;
66421;SDS011;53228;51.380;0.098;2022-09-12T10:30:17;8.95;;;3.10;;
66421;SDS011;53228;51.380;0.098;2022-09-12T10:32:47;6.18;;;2.53;;
66421;SDS011;53228;51.380;0.098;2022-09-12T10:35:29;2.95;;;2.00;;
66421;SDS011;53228;51.380;0.098;2022-09-12T10:38:27;4.10;;;2.20;;
66421;SDS011;53228;51.380;0.098;2022-09-12T10:48:43;8.63;;;4.50;;
66421;SDS011;53228;51.380;0.098;2022-09-12T10:53:56;10.90;;;7.40;;
66421;SDS011;53228;51.380;0.098;2022-09-12T11:01:45;6.65;;;4.55;;
66421;SDS011;53228;51.380;0.098;2022-09-12T11:04:33;6.15;;;3.78;;
66421;SDS011;53228;51.380;0.098;2022-09-12T11:48:47;13.48;;;7.68;;
66421;SDS011;53228;51.380;0.098;2022-09-12T11:51:20;12.68;;;7.03;;
66421;SDS011;53228;51.380;0.098;2022-09-12T11:53:57;12.98;;;7.18;;
66421;SDS011;53228;51.380;0.098;2022-09-12T11:56:29;11.35;;;7.30;;
66421;SDS011;53228;51.380;0.098;2022-09-12T11:58:58;12.05;;;6.55;;
66421;SDS011;53228;51.380;0.098;2022-09-12T12:01:37;14.00;;;6.65;;
66421;SDS011;53228;51.380;0.098;2022-09-12T12:04:14;10.75;;;6.10;;
66421;SDS011;53228;51.380;0.098;2022-09-12T12:06:48;12.40;;;7.00;;
66421;SDS011;53228;51.380;0.098;2022-09-12T12:09:21;11.38;;;6.88;;
66421;SDS011;53228;51.380;0.098;2022-09-12T12:11:51;14.82;;;6.32;;
66421;SDS011;53228;51.380;0.098;2022-09-12T12:14:25;12.80;;;7.72;;
66421;SDS011;53228;51.380;0.098;2022-09-12T12:16:59;17.42;;;8.70;;
66421;SDS011;53228;51.380;0.098;2022-09-12T12:22:33;13.60;;;7.78;;
66421;SDS011;53228;51.380;0.098;2022-09-12T12:24:54;6.65;;;3.10;;
66421;SDS011;53228;51.380;0.098;2022-09-12T12:28:09;5.03;;;2.75;;
66421;SDS011;53228;51.380;0.098;2022-09-12T12:48:43;2.53;;;1.40;;
66421;SDS011;53228;51.380;0.098;2022-09-12T12:53:49;1.17;;;1.00;;
66421;SDS011;53228;51.380;0.098;2022-09-12T12:59:14;2.38;;;1.52;;
66421;SDS011;53228;51.380;0.098;2022-09-12T13:04:22;2.83;;;1.40;;
66421;SDS011;53228;51.380;0.098;2022-09-12T13:07:04;2.47;;;1.20;;
66421;SDS011;53228;51.380;0.098;2022-09-12T13:09:38;3.15;;;1.30;;
66421;SDS011;53228;51.380;0.098;2022-09-12T13:12:19;1.73;;;1.30;;
66421;SDS011;53228;51.380;0.098;2022-09-12T13:14:55;6.60;;;1.30;;
66421;SDS011;53228;51.380;0.098;2022-09-12T13:17:32;2.70;;;1.30;;
66421;SDS011;53228;51.380;0.098;2022-09-12T13:20:13;1.65;;;1.00;;
66421;SDS011;53228;51.380;0.098;2022-09-12T13:23:00;2.33;;;1.20;;
66421;SDS011;53228;51.380;0.098;2022-09-12T13:25:29;2.13;;;1.23;;
66421;SDS011;53228;51.380;0.098;2022-09-12T13:30:38;3.20;;;1.30;;
66421;SDS011;53228;51.380;0.098;2022-09-12T13:44:09;2.67;;;1.40;;
66421;SDS011;53228;51.380;0.098;2022-09-12T13:46:40;3.20;;;1.33;;
66421;SDS011;53228;51.380;0.098;2022-09-12T13:49:16;3.20;;;1.40;;
66421;SDS011;53228;51.380;0.098;2022-09-12T13:51:56;6.50;;;1.30;;
66421;SDS011;53228;51.380;0.098;2022-09-12T13:54:27;2.53;;;0.93;;
66421;SDS011;53228;51.380;0.098;2022-09-12T13:56:56;1.52;;;0.95;;
66421;SDS011;53228;51.380;0.098;2022-09-12T13:59:25;2.28;;;1.00;;
66421;SDS011;53228;51.380;0.098;2022-09-12T14:01:53;3.33;;;1.75;;
66421;SDS011;53228;51.380;0.098;2022-09-12T14:04:25;1.33;;;1.13;;
66421;SDS011;53228;51.380;0.098;2022-09-12T14:07:18;4.80;;;1.17;;
66421;SDS011;53228;51.380;0.098;2022-09-12T14:09:52;2.63;;;1.50;;
66421;SDS011;53228;51.380;0.098;2022-09-12T14:12:26;2.35;;;1.70;;
66421;SDS011;53228;51.380;0.098;2022-09-12T14:14:57;1.75;;;1.25;;
66421;SDS011;53228;51.380;0.098;2022-09-12T14:20:01;1.55;;;1.20;;
66421;SDS011;53228;51.380;0.098;2022-09-12T14:22:32;1.98;;;1.00;;
66421;SDS011;53228;51.380;0.098;2022-09-12T14:25:02;1.60;;;1.20;;
66421;SDS011;53228;51.380;0.098;2022-09-12T14:27:35;5.05;;;1.10;;
66421;SDS011;53228;51.380;0.098;2022-09-12T14:30:30;2.45;;;1.10;;
66421;SDS011;53228;51.380;0.098;2022-09-12T14:35:36;3.75;;;2.17;;
66421;SDS011;53228;51.380;0.098;2022-09-12T14:40:44;2.47;;;0.80;;
66421;SDS011;53228;51.380;0.098;2022-09-12T14:43:20;1.75;;;0.90;;
66421;SDS011;53228;51.380;0.098;2022-09-12T14:46:02;2.25;;;1.05;;
66421;SDS011;53228;51.380;0.098;2022-09-12T14:48:36;1.13;;;0.75;;
66421;SDS011;53228;51.380;0.098;2022-09-12T14:56:55;1.88;;;0.93;;
66421;SDS011;53228;51.380;0.098;2022-09-12T15:07:29;2.78;;;1.00;;
66421;SDS011;53228;51.380;0.098;2022-09-12T15:10:00;2.55;;;1.02;;
66421;SDS011;53228;51.380;0.098;2022-09-12T15:12:31;2.17;;;0.90;;
66421;SDS011;53228;51.380;0.098;2022-09-12T15:14:59;1.58;;;1.05;;
66421;SDS011;53228;51.380;0.098;2022-09-12T15:17:38;1.70;;;0.80;;
66421;SDS011;53228;51.380;0.098;2022-09-12T15:20:06;2.45;;;1.10;;
66421;SDS011;53228;51.380;0.098;2022-09-12T15:22:34;6.65;;;1.50;;
66421;SDS011;53228;51.380;0.098;2022-09-12T15:25:04;1.52;;;1.00;;
66421;SDS011;53228;51.380;0.098;2022-09-12T15:27:32;1.88;;;1.00;;
66421;SDS011;53228;51.380;0.098;2022-09-12T15:30:00;3.30;;;1.50;;
66421;SDS011;53228;51.380;0.098;2022-09-12T15:32:28;3.60;;;1.83;;
66421;SDS011;53228;51.380;0.098;2022-09-12T15:34:56;2.97;;;1.00;;
66421;SDS011;53228;51.380;0.098;2022-09-12T15:37:23;1.38;;;1.02;;
66421;SDS011;53228;51.380;0.098;2022-09-12T15:39:51;1.25;;;0.88;;
66421;SDS011;53228;51.380;0.098;2022-09-12T15:42:24;2.42;;;0.73;;
66421;SDS011;53228;51.380;0.098;2022-09-12T15:44:55;2.35;;;1.38;;
66421;SDS011;53228;51.380;0.098;2022-09-12T15:47:29;5.82;;;1.48;;
66421;SDS011;53228;51.380;0.098;2022-09-12T15:49:57;3.67;;;1.92;;
66421;SDS011;53228;51.380;0.098;2022-09-12T15:52:25;4.75;;;1.75;;
66421;SDS011;53228;51.380;0.098;2022-09-12T15:54:53;4.68;;;1.70;;
66421;SDS011;53228;51.380;0.098;2022-09-12T15:57:21;2.33;;;1.55;;
66421;SDS011;53228;51.380;0.098;2022-09-12T15:59:48;6.47;;;1.13;;
66421;SDS011;53228;51.380;0.098;2022-09-12T16:02:16;2.22;;;1.42;;
66421;SDS011;53228;51.380;0.098;2022-09-12T16:04:44;1.75;;;1.20;;
66421;SDS011;53228;51.380;0.098;2022-09-12T16:07:14;2.53;;;1.42;;
66421;SDS011;53228;51.380;0.098;2022-09-12T16:09:41;2.03;;;1.02;;
66421;SDS011;53228;51.380;0.098;2022-09-12T16:12:09;2.45;;;1.50;;
66421;SDS011;53228;51.380;0.098;2022-09-12T16:14:37;5.65;;;1.80;;
66421;SDS011;53228;51.380;0.098;2022-09-12T16:17:05;3.50;;;1.65;;
66421;SDS011;53228;51.380;0.098;2022-09-12T16:19:33;1.42;;;1.30;;
66421;SDS011;53228;51.380;0.098;2022-09-12T16:22:01;3.53;;;2.03;;
66421;SDS011;53228;51.380;0.098;2022-09-12T16:24:29;1.80;;;1.00;;
66421;SDS011;53228;51.380;0.098;2022-09-12T16:26:57;1.38;;;1.20;;
66421;SDS011;53228;51.380;0.098;2022-09-12T16:29:27;2.33;;;1.33;;
66421;SDS011;53228;51.380;0.098;2022-09-12T16:31:55;2.80;;;1.20;;
66421;SDS011;53228;51.380;0.098;2022-09-12T16:34:23;2.25;;;1.50;;
66421;SDS011;53228;51.380;0.098;2022-09-12T16:36:50;2.60;;;1.05;;
66421;SDS011;53228;51.380;0.098;2022-09-12T16:39:18;1.83;;;1.20;;
66421;SDS011;53228;51.380;0.098;2022-09-12T16:41:46;2.85;;;1.40;;
66421;SDS011;53228;51.380;0.098;2022-09-12T16:44:14;2.65;;;1.48;;
66421;SDS011;53228;51.380;0.098;2022-09-12T16:46:42;4.80;;;1.55;;
66421;SDS011;53228;51.380;0.098;2022-09-12T16:49:10;1.95;;;1.05;;
66421;SDS011;53228;51.380;0.098;2022-09-12T16:51:37;2.10;;;1.20;;
66421;SDS011;53228;51.380;0.098;2022-09-12T16:54:09;2.25;;;1.52;;
66421;SDS011;53228;51.380;0.098;2022-09-12T16:56:37;3.33;;;1.10;;
66421;SDS011;53228;51.380;0.098;2022-09-12T16:59:06;6.45;;;1.20;;
66421;SDS011;53228;51.380;0.098;2022-09-12T17:01:35;2.83;;;1.20;;
66421;SDS011;53228;51.380;0.098;2022-09-12T17:04:03;1.25;;;1.10;;
66421;SDS011;53228;51.380;0.098;2022-09-12T17:06:32;1.30;;;1.20;;
66421;SDS011;53228;51.380;0.098;2022-09-12T17:09:00;4.20;;;1.20;;
66421;SDS011;53228;51.380;0.098;2022-09-12T17:11:30;1.35;;;1.15;;
66421;SDS011;53228;51.380;0.098;2022-09-12T17:14:00;2.05;;;1.02;;
66421;SDS011;53228;51.380;0.098;2022-09-12T17:16:33;3.38;;;1.42;;
66421;SDS011;53228;51.380;0.098;2022-09-12T17:19:03;4.40;;;1.58;;
66421;SDS011;53228;51.380;0.098;2022-09-12T17:24:01;1.70;;;1.10;;
66421;SDS011;53228;51.380;0.098;2022-09-12T17:26:30;1.20;;;1.10;;
66421;SDS011;53228;51.380;0.098;2022-09-12T17:28:59;2.60;;;1.20;;
66421;SDS011;53228;51.380;0.098;2022-09-12T17:31:28;4.53;;;2.03;;
66421;SDS011;53228;51.380;0.098;2022-09-12T17:33:56;2.30;;;1.70;;
66421;SDS011;53228;51.380;0.098;2022-09-12T17:36:25;5.07;;;2.45;;
66421;SDS011;53228;51.380;0.098;2022-09-12T17:38:54;3.53;;;2.38;;
66421;SDS011;53228;51.380;0.098;2022-09-12T17:41:24;11.82;;;5.60;;
66421;SDS011;53228;51.380;0.098;2022-09-12T17:43:56;6.57;;;3.10;;
66421;SDS011;53228;51.380;0.098;2022-09-12T17:46:30;3.72;;;1.40;;
66421;SDS011;53228;51.380;0.098;2022-09-12T17:49:03;4.28;;;2.08;;
66421;SDS011;53228;51.380;0.098;2022-09-12T17:51:32;5.32;;;2.13;;
66421;SDS011;53228;51.380;0.098;2022-09-12T17:54:03;5.20;;;1.83;;
66421;SDS011;53228;51.380;0.098;2022-09-12T17:56:34;5.68;;;2.42;;
66421;SDS011;53228;51.380;0.098;2022-09-12T17:59:03;4.35;;;2.65;;
66421;SDS011;53228;51.380;0.098;2022-09-12T18:01:33;4.82;;;1.77;;
66421;SDS011;53228;51.380;0.098;2022-09-12T18:04:19;4.07;;;2.20;;
66421;SDS011;53228;51.380;0.098;2022-09-12T18:06:46;4.07;;;2.42;;
66421;SDS011;53228;51.380;0.098;2022-09-12T18:09:16;7.00;;;2.80;;
66421;SDS011;53228;51.380;0.098;2022-09-12T18:11:45;4.68;;;2.45;;
66421;SDS011;53228;51.380;0.098;2022-09-12T18:14:14;5.47;;;2.50;;
66421;SDS011;53228;51.380;0.098;2022-09-12T18:16:43;5.03;;;3.08;;
66421;SDS011;53228;51.380;0.098;2022-09-12T18:19:12;2.05;;;1.70;;
66421;SDS011;53228;51.380;0.098;2022-09-12T18:21:40;4.70;;;1.65;;
66421;SDS011;53228;51.380;0.098;2022-09-12T18:24:08;3.15;;;1.45;;
66421;SDS011;53228;51.380;0.098;2022-09-12T18:26:36;1.92;;;1.50;;
66421;SDS011;53228;51.380;0.098;2022-09-12T18:29:04;3.80;;;1.83;;
66421;SDS011;53228;51.380;0.098;2022-09-12T18:31:32;4.68;;;2.30;;
66421;SDS011;53228;51.380;0.098;2022-09-12T18:34:00;8.95;;;4.65;;
66421;SDS011;53228;51.380;0.098;2022-09-12T18:36:29;11.68;;;5.85;;
66421;SDS011;53228;51.380;0.098;2022-09-12T18:38:57;5.43;;;3.00;;
66421;SDS011;53228;51.380;0.098;2022-09-12T18:41:25;10.15;;;5.40;;
66421;SDS011;53228;51.380;0.098;2022-09-12T18:43:58;11.57;;;5.38;;
66421;SDS011;53228;51.380;0.098;2022-09-12T18:46:29;7.85;;;4.50;;
66421;SDS011;53228;51.380;0.098;2022-09-12T18:48:58;7.65;;;2.97;;
66421;SDS011;53228;51.380;0.098;2022-09-12T18:51:30;4.75;;;2.75;;
66421;SDS011;53228;51.380;0.098;2022-09-12T18:54:04;4.05;;;2.22;;